sensor_id;sensor_type;location;lat;lon;timestamp;temperature;humidity
11491;DHT22;5802;52.832;4.758;2022-11-24T00:01:52;22.00;48.60
11491;DHT22;5802;52.832;4.758;2022-11-24T00:04:19;22.00;48.50
11491;DHT22;5802;52.832;4.758;2022-11-24T00:06:46;22.00;48.50
11491;DHT22;5802;52.832;4.758;2022-11-24T01:26:44;21.80;48.40
11491;DHT22;5802;52.832;4.758;2022-11-24T01:29:11;21.90;48.50
11491;DHT22;5802;52.832;4.758;2022-11-24T01:31:38;21.90;48.40
11491;DHT22;5802;52.832;4.758;2022-11-24T01:34:05;21.90;48.30
11491;DHT22;5802;52.832;4.758;2022-11-24T01:36:33;21.90;48.20
11491;DHT22;5802;52.832;4.758;2022-11-24T01:38:59;21.90;48.10
11491;DHT22;5802;52.832;4.758;2022-11-24T01:41:26;21.90;48.10
11491;DHT22;5802;52.832;4.758;2022-11-24T01:43:55;21.90;48.10
11491;DHT22;5802;52.832;4.758;2022-11-24T01:46:27;22.00;48.10
11491;DHT22;5802;52.832;4.758;2022-11-24T01:49:00;22.00;48.10
11491;DHT22;5802;52.832;4.758;2022-11-24T01:51:30;22.00;48.70
11491;DHT22;5802;52.832;4.758;2022-11-24T01:54:01;22.00;48.10
11491;DHT22;5802;52.832;4.758;2022-11-24T01:56:32;22.00;48.00
11491;DHT22;5802;52.832;4.758;2022-11-24T01:59:02;22.00;48.00
11491;DHT22;5802;52.832;4.758;2022-11-24T02:01:30;22.00;48.00
11491;DHT22;5802;52.832;4.758;2022-11-24T02:03:58;22.00;48.00
11491;DHT22;5802;52.832;4.758;2022-11-24T02:06:28;22.00;47.90
11491;DHT22;5802;52.832;4.758;2022-11-24T02:08:58;22.00;47.90
11491;DHT22;5802;52.832;4.758;2022-11-24T02:11:29;22.00;47.90
11491;DHT22;5802;52.832;4.758;2022-11-24T02:13:59;22.00;47.90
11491;DHT22;5802;52.832;4.758;2022-11-24T02:16:28;22.00;47.90
11491;DHT22;5802;52.832;4.758;2022-11-24T02:18:55;22.00;47.90
11491;DHT22;5802;52.832;4.758;2022-11-24T02:21:22;22.00;47.90
11491;DHT22;5802;52.832;4.758;2022-11-24T02:23:53;22.00;47.90
11491;DHT22;5802;52.832;4.758;2022-11-24T02:26:36;22.00;47.90
11491;DHT22;5802;52.832;4.758;2022-11-24T02:29:04;22.00;47.90
11491;DHT22;5802;52.832;4.758;2022-11-24T02:31:31;22.00;47.90
11491;DHT22;5802;52.832;4.758;2022-11-24T02:33:59;21.90;47.90
11491;DHT22;5802;52.832;4.758;2022-11-24T02:36:25;21.90;47.90
11491;DHT22;5802;52.832;4.758;2022-11-24T02:38:52;21.90;47.80
11491;DHT22;5802;52.832;4.758;2022-11-24T02:41:21;21.90;47.80
11491;DHT22;5802;52.832;4.758;2022-11-24T02:43:52;21.90;47.80
11491;DHT22;5802;52.832;4.758;2022-11-24T02:46:20;21.90;47.80
11491;DHT22;5802;52.832;4.758;2022-11-24T02:48:47;21.90;47.70
11491;DHT22;5802;52.832;4.758;2022-11-24T02:51:14;21.90;47.70
11491;DHT22;5802;52.832;4.758;2022-11-24T02:53:41;21.90;47.70
11491;DHT22;5802;52.832;4.758;2022-11-24T02:56:08;21.90;47.70
11491;DHT22;5802;52.832;4.758;2022-11-24T02:58:35;21.90;47.70
11491;DHT22;5802;52.832;4.758;2022-11-24T03:01:04;21.90;47.70
11491;DHT22;5802;52.832;4.758;2022-11-24T03:03:31;21.90;47.70
11491;DHT22;5802;52.832;4.758;2022-11-24T03:05:58;21.90;47.70
11491;DHT22;5802;52.832;4.758;2022-11-24T03:08:25;21.90;47.60
11491;DHT22;5802;52.832;4.758;2022-11-24T03:10:52;21.90;47.60
11491;DHT22;5802;52.832;4.758;2022-11-24T03:13:19;21.90;47.60
11491;DHT22;5802;52.832;4.758;2022-11-24T03:15:46;21.90;47.60
11491;DHT22;5802;52.832;4.758;2022-11-24T03:18:14;21.90;47.60
11491;DHT22;5802;52.832;4.758;2022-11-24T03:20:41;21.90;47.60
11491;DHT22;5802;52.832;4.758;2022-11-24T03:23:08;21.90;47.60
11491;DHT22;5802;52.832;4.758;2022-11-24T03:25:35;21.90;47.60
11491;DHT22;5802;52.832;4.758;2022-11-24T03:28:03;21.90;47.60
11491;DHT22;5802;52.832;4.758;2022-11-24T03:30:30;21.90;47.60
11491;DHT22;5802;52.832;4.758;2022-11-24T03:32:57;21.90;47.60
11491;DHT22;5802;52.832;4.758;2022-11-24T03:35:25;21.90;47.70
11491;DHT22;5802;52.832;4.758;2022-11-24T03:37:52;21.90;47.60
11491;DHT22;5802;52.832;4.758;2022-11-24T03:40:19;21.90;47.70
11491;DHT22;5802;52.832;4.758;2022-11-24T03:42:46;21.90;47.60
11491;DHT22;5802;52.832;4.758;2022-11-24T03:45:13;21.90;47.70
11491;DHT22;5802;52.832;4.758;2022-11-24T03:47:40;21.90;47.70
11491;DHT22;5802;52.832;4.758;2022-11-24T03:50:08;21.90;47.70
11491;DHT22;5802;52.832;4.758;2022-11-24T03:52:36;21.90;47.80
11491;DHT22;5802;52.832;4.758;2022-11-24T03:55:04;21.90;47.70
11491;DHT22;5802;52.832;4.758;2022-11-24T03:57:30;21.90;47.80
11491;DHT22;5802;52.832;4.758;2022-11-24T03:59:57;21.80;47.70
11491;DHT22;5802;52.832;4.758;2022-11-24T04:02:24;21.80;47.70
11491;DHT22;5802;52.832;4.758;2022-11-24T04:04:51;21.80;47.70
11491;DHT22;5802;52.832;4.758;2022-11-24T04:07:18;21.80;47.70
11491;DHT22;5802;52.832;4.758;2022-11-24T04:09:46;21.80;47.70
11491;DHT22;5802;52.832;4.758;2022-11-24T04:12:13;21.90;47.80
11491;DHT22;5802;52.832;4.758;2022-11-24T04:14:58;21.80;47.70
11491;DHT22;5802;52.832;4.758;2022-11-24T04:17:24;21.80;47.70
11491;DHT22;5802;52.832;4.758;2022-11-24T04:19:51;21.80;47.70
11491;DHT22;5802;52.832;4.758;2022-11-24T04:22:18;21.80;47.70
11491;DHT22;5802;52.832;4.758;2022-11-24T04:24:46;21.80;47.70
11491;DHT22;5802;52.832;4.758;2022-11-24T04:27:12;21.80;47.70
11491;DHT22;5802;52.832;4.758;2022-11-24T04:29:39;21.80;47.70
11491;DHT22;5802;52.832;4.758;2022-11-24T04:32:06;21.80;47.70
11491;DHT22;5802;52.832;4.758;2022-11-24T04:34:33;21.80;47.70
11491;DHT22;5802;52.832;4.758;2022-11-24T04:36:59;21.80;47.70
11491;DHT22;5802;52.832;4.758;2022-11-24T04:39:27;21.80;47.60
11491;DHT22;5802;52.832;4.758;2022-11-24T04:41:55;21.80;47.60
11491;DHT22;5802;52.832;4.758;2022-11-24T04:44:22;21.80;47.60
11491;DHT22;5802;52.832;4.758;2022-11-24T04:46:49;21.80;47.60
11491;DHT22;5802;52.832;4.758;2022-11-24T04:49:15;21.80;47.60
11491;DHT22;5802;52.832;4.758;2022-11-24T04:51:42;21.80;47.60
11491;DHT22;5802;52.832;4.758;2022-11-24T04:54:10;21.80;47.60
11491;DHT22;5802;52.832;4.758;2022-11-24T04:56:37;21.80;47.60
11491;DHT22;5802;52.832;4.758;2022-11-24T04:59:05;21.80;47.60
11491;DHT22;5802;52.832;4.758;2022-11-24T05:01:32;21.80;47.60
11491;DHT22;5802;52.832;4.758;2022-11-24T05:03:59;21.80;47.60
11491;DHT22;5802;52.832;4.758;2022-11-24T05:06:26;21.80;47.60
11491;DHT22;5802;52.832;4.758;2022-11-24T05:08:52;21.80;47.60
11491;DHT22;5802;52.832;4.758;2022-11-24T05:11:19;21.80;47.60
11491;DHT22;5802;52.832;4.758;2022-11-24T05:13:46;21.80;47.60
11491;DHT22;5802;52.832;4.758;2022-11-24T05:16:14;21.80;47.50
11491;DHT22;5802;52.832;4.758;2022-11-24T05:18:40;21.80;47.50
11491;DHT22;5802;52.832;4.758;2022-11-24T05:21:07;21.80;47.50
11491;DHT22;5802;52.832;4.758;2022-11-24T05:23:34;21.80;47.50
11491;DHT22;5802;52.832;4.758;2022-11-24T05:26:01;21.80;47.60
11491;DHT22;5802;52.832;4.758;2022-11-24T05:28:28;21.80;47.70
11491;DHT22;5802;52.832;4.758;2022-11-24T05:30:58;21.80;47.80
11491;DHT22;5802;52.832;4.758;2022-11-24T05:33:28;21.80;47.80
11491;DHT22;5802;52.832;4.758;2022-11-24T05:35:59;21.80;47.90
11491;DHT22;5802;52.832;4.758;2022-11-24T05:38:27;21.80;48.00
11491;DHT22;5802;52.832;4.758;2022-11-24T05:40:59;21.80;48.10
11491;DHT22;5802;52.832;4.758;2022-11-24T05:43:26;21.80;48.10
11491;DHT22;5802;52.832;4.758;2022-11-24T05:45:53;21.80;48.20
11491;DHT22;5802;52.832;4.758;2022-11-24T05:48:19;21.80;48.20
11491;DHT22;5802;52.832;4.758;2022-11-24T05:50:53;21.80;48.30
11491;DHT22;5802;52.832;4.758;2022-11-24T05:53:20;21.80;48.30
11491;DHT22;5802;52.832;4.758;2022-11-24T05:55:47;21.80;48.30
11491;DHT22;5802;52.832;4.758;2022-11-24T05:58:14;21.80;48.30
11491;DHT22;5802;52.832;4.758;2022-11-24T06:00:41;21.80;48.30
11491;DHT22;5802;52.832;4.758;2022-11-24T06:03:08;21.80;48.30
11491;DHT22;5802;52.832;4.758;2022-11-24T06:05:35;21.80;48.30
11491;DHT22;5802;52.832;4.758;2022-11-24T06:08:03;21.80;48.20
11491;DHT22;5802;52.832;4.758;2022-11-24T06:10:30;21.80;48.20
11491;DHT22;5802;52.832;4.758;2022-11-24T06:12:56;21.80;48.20
11491;DHT22;5802;52.832;4.758;2022-11-24T06:15:23;21.80;48.20
11491;DHT22;5802;52.832;4.758;2022-11-24T06:17:53;21.80;48.20
11491;DHT22;5802;52.832;4.758;2022-11-24T06:20:22;21.80;48.10
11491;DHT22;5802;52.832;4.758;2022-11-24T06:22:48;21.80;48.10
11491;DHT22;5802;52.832;4.758;2022-11-24T06:25:16;21.90;48.20
11491;DHT22;5802;52.832;4.758;2022-11-24T06:27:43;21.90;48.20
11491;DHT22;5802;52.832;4.758;2022-11-24T06:30:11;21.80;48.10
11491;DHT22;5802;52.832;4.758;2022-11-24T06:32:38;21.80;48.10
11491;DHT22;5802;52.832;4.758;2022-11-24T06:35:10;21.90;48.20
11491;DHT22;5802;52.832;4.758;2022-11-24T06:37:37;21.90;48.20
11491;DHT22;5802;52.832;4.758;2022-11-24T06:40:05;21.90;48.30
11491;DHT22;5802;52.832;4.758;2022-11-24T06:42:35;21.80;48.30
11491;DHT22;5802;52.832;4.758;2022-11-24T06:45:03;21.90;48.30
11491;DHT22;5802;52.832;4.758;2022-11-24T06:47:29;21.80;48.30
11491;DHT22;5802;52.832;4.758;2022-11-24T06:49:56;21.90;48.40
11491;DHT22;5802;52.832;4.758;2022-11-24T06:52:23;21.90;48.30
11491;DHT22;5802;52.832;4.758;2022-11-24T06:54:50;21.80;48.30
11491;DHT22;5802;52.832;4.758;2022-11-24T06:57:18;21.90;48.40
11491;DHT22;5802;52.832;4.758;2022-11-24T06:59:46;21.90;48.40
11491;DHT22;5802;52.832;4.758;2022-11-24T07:02:13;21.90;48.40
11491;DHT22;5802;52.832;4.758;2022-11-24T07:04:39;21.90;48.40
11491;DHT22;5802;52.832;4.758;2022-11-24T07:07:06;21.90;48.30
11491;DHT22;5802;52.832;4.758;2022-11-24T07:09:33;21.90;48.30
11491;DHT22;5802;52.832;4.758;2022-11-24T07:11:59;21.90;48.20
11491;DHT22;5802;52.832;4.758;2022-11-24T07:14:26;21.90;48.20
11491;DHT22;5802;52.832;4.758;2022-11-24T07:16:54;21.90;48.30
11491;DHT22;5802;52.832;4.758;2022-11-24T07:19:21;21.90;48.20
11491;DHT22;5802;52.832;4.758;2022-11-24T07:21:48;21.90;48.20
11491;DHT22;5802;52.832;4.758;2022-11-24T07:24:14;21.90;48.20
11491;DHT22;5802;52.832;4.758;2022-11-24T07:26:41;21.90;48.20
11491;DHT22;5802;52.832;4.758;2022-11-24T07:29:08;21.90;48.20
11491;DHT22;5802;52.832;4.758;2022-11-24T07:31:34;21.90;48.20
11491;DHT22;5802;52.832;4.758;2022-11-24T07:34:02;21.90;48.20
11491;DHT22;5802;52.832;4.758;2022-11-24T07:36:30;21.90;48.20
11491;DHT22;5802;52.832;4.758;2022-11-24T07:38:57;21.90;48.20
11491;DHT22;5802;52.832;4.758;2022-11-24T07:41:23;21.90;48.20
11491;DHT22;5802;52.832;4.758;2022-11-24T07:43:50;21.90;48.20
11491;DHT22;5802;52.832;4.758;2022-11-24T07:46:18;21.90;48.20
11491;DHT22;5802;52.832;4.758;2022-11-24T07:48:45;21.90;48.20
11491;DHT22;5802;52.832;4.758;2022-11-24T07:51:13;21.90;48.20
11491;DHT22;5802;52.832;4.758;2022-11-24T07:53:41;21.90;48.20
11491;DHT22;5802;52.832;4.758;2022-11-24T07:56:08;21.90;48.20
11491;DHT22;5802;52.832;4.758;2022-11-24T07:58:36;22.00;48.20
11491;DHT22;5802;52.832;4.758;2022-11-24T08:01:10;22.00;48.90
11491;DHT22;5802;52.832;4.758;2022-11-24T08:03:37;22.00;48.20
11491;DHT22;5802;52.832;4.758;2022-11-24T08:06:04;22.00;48.30
11491;DHT22;5802;52.832;4.758;2022-11-24T08:08:32;22.00;48.20
11491;DHT22;5802;52.832;4.758;2022-11-24T08:11:03;22.00;48.20
11491;DHT22;5802;52.832;4.758;2022-11-24T08:13:31;22.00;48.20
11491;DHT22;5802;52.832;4.758;2022-11-24T08:15:57;22.00;48.30
11491;DHT22;5802;52.832;4.758;2022-11-24T08:18:24;22.00;48.20
11491;DHT22;5802;52.832;4.758;2022-11-24T08:20:52;22.00;48.20
11491;DHT22;5802;52.832;4.758;2022-11-24T08:23:18;22.00;48.20
11491;DHT22;5802;52.832;4.758;2022-11-24T08:25:46;22.00;48.20
11491;DHT22;5802;52.832;4.758;2022-11-24T08:28:13;22.00;48.20
11491;DHT22;5802;52.832;4.758;2022-11-24T08:30:40;22.00;48.20
11491;DHT22;5802;52.832;4.758;2022-11-24T08:33:06;22.00;48.20
11491;DHT22;5802;52.832;4.758;2022-11-24T08:35:35;22.10;48.20
11491;DHT22;5802;52.832;4.758;2022-11-24T08:38:01;22.10;48.20
11491;DHT22;5802;52.832;4.758;2022-11-24T08:40:28;22.10;48.20
11491;DHT22;5802;52.832;4.758;2022-11-24T08:42:57;22.10;48.10
11491;DHT22;5802;52.832;4.758;2022-11-24T08:45:24;22.10;48.10
11491;DHT22;5802;52.832;4.758;2022-11-24T08:47:52;22.10;48.10
11491;DHT22;5802;52.832;4.758;2022-11-24T08:50:19;22.10;48.10
11491;DHT22;5802;52.832;4.758;2022-11-24T08:52:46;22.10;48.10
11491;DHT22;5802;52.832;4.758;2022-11-24T08:55:13;22.10;48.70
11491;DHT22;5802;52.832;4.758;2022-11-24T08:57:39;22.20;48.10
11491;DHT22;5802;52.832;4.758;2022-11-24T09:00:09;22.20;48.10
11491;DHT22;5802;52.832;4.758;2022-11-24T09:02:36;22.20;48.10
11491;DHT22;5802;52.832;4.758;2022-11-24T09:05:03;22.20;48.10
11491;DHT22;5802;52.832;4.758;2022-11-24T09:07:30;22.20;48.20
11491;DHT22;5802;52.832;4.758;2022-11-24T09:09:57;22.20;48.10
11491;DHT22;5802;52.832;4.758;2022-11-24T09:12:24;22.20;48.20
11491;DHT22;5802;52.832;4.758;2022-11-24T09:14:50;22.20;48.10
11491;DHT22;5802;52.832;4.758;2022-11-24T09:17:18;22.20;48.10
11491;DHT22;5802;52.832;4.758;2022-11-24T09:19:48;22.20;48.10
11491;DHT22;5802;52.832;4.758;2022-11-24T09:22:14;22.30;48.00
11491;DHT22;5802;52.832;4.758;2022-11-24T09:24:43;22.30;48.00
11491;DHT22;5802;52.832;4.758;2022-11-24T09:27:10;22.30;47.90
11491;DHT22;5802;52.832;4.758;2022-11-24T09:29:36;22.40;47.90
11491;DHT22;5802;52.832;4.758;2022-11-24T09:32:03;22.40;48.00
11491;DHT22;5802;52.832;4.758;2022-11-24T09:34:31;22.40;47.90
11491;DHT22;5802;52.832;4.758;2022-11-24T09:36:58;22.40;47.90
11491;DHT22;5802;52.832;4.758;2022-11-24T09:39:25;22.40;48.00
11491;DHT22;5802;52.832;4.758;2022-11-24T09:42:06;22.50;48.00
11491;DHT22;5802;52.832;4.758;2022-11-24T09:47:33;22.50;48.00
11491;DHT22;5802;52.832;4.758;2022-11-24T09:50:04;22.50;47.90
11491;DHT22;5802;52.832;4.758;2022-11-24T09:52:38;22.50;47.90
11491;DHT22;5802;52.832;4.758;2022-11-24T09:55:20;22.60;47.90
11491;DHT22;5802;52.832;4.758;2022-11-24T09:57:53;22.60;47.90
11491;DHT22;5802;52.832;4.758;2022-11-24T10:00:21;22.60;47.80
11491;DHT22;5802;52.832;4.758;2022-11-24T10:02:48;22.60;47.80
11491;DHT22;5802;52.832;4.758;2022-11-24T10:05:17;22.60;47.80
11491;DHT22;5802;52.832;4.758;2022-11-24T10:07:50;22.70;47.80
11491;DHT22;5802;52.832;4.758;2022-11-24T10:10:23;22.70;47.70
11491;DHT22;5802;52.832;4.758;2022-11-24T10:12:59;22.70;47.70
11491;DHT22;5802;52.832;4.758;2022-11-24T10:15:36;22.70;48.10
11491;DHT22;5802;52.832;4.758;2022-11-24T10:18:21;22.80;48.30
11491;DHT22;5802;52.832;4.758;2022-11-24T10:20:59;22.80;48.30
11491;DHT22;5802;52.832;4.758;2022-11-24T10:23:40;22.80;48.90
11491;DHT22;5802;52.832;4.758;2022-11-24T10:26:17;22.80;48.30
11491;DHT22;5802;52.832;4.758;2022-11-24T10:28:48;22.80;48.30
11491;DHT22;5802;52.832;4.758;2022-11-24T10:31:23;22.80;48.30
11491;DHT22;5802;52.832;4.758;2022-11-24T10:33:50;22.80;48.20
11491;DHT22;5802;52.832;4.758;2022-11-24T10:36:22;22.90;48.30
11491;DHT22;5802;52.832;4.758;2022-11-24T10:38:55;22.90;48.30
11491;DHT22;5802;52.832;4.758;2022-11-24T10:41:29;22.90;48.30
11491;DHT22;5802;52.832;4.758;2022-11-24T10:44:02;22.90;48.40
11491;DHT22;5802;52.832;4.758;2022-11-24T10:46:29;22.90;48.40
11491;DHT22;5802;52.832;4.758;2022-11-24T10:48:59;23.00;48.30
11491;DHT22;5802;52.832;4.758;2022-11-24T10:51:37;23.00;48.40
11491;DHT22;5802;52.832;4.758;2022-11-24T10:54:14;23.00;48.30
11491;DHT22;5802;52.832;4.758;2022-11-24T10:56:42;23.00;48.30
11491;DHT22;5802;52.832;4.758;2022-11-24T10:59:23;23.00;48.30
11491;DHT22;5802;52.832;4.758;2022-11-24T11:01:52;23.00;48.20
11491;DHT22;5802;52.832;4.758;2022-11-24T11:04:21;23.00;48.20
11491;DHT22;5802;52.832;4.758;2022-11-24T11:06:51;23.10;48.20
11491;DHT22;5802;52.832;4.758;2022-11-24T11:09:19;23.10;48.10
11491;DHT22;5802;52.832;4.758;2022-11-24T11:11:47;23.10;48.20
11491;DHT22;5802;52.832;4.758;2022-11-24T11:14:28;23.10;48.20
11491;DHT22;5802;52.832;4.758;2022-11-24T11:16:56;23.10;48.10
11491;DHT22;5802;52.832;4.758;2022-11-24T11:19:41;23.20;48.20
11491;DHT22;5802;52.832;4.758;2022-11-24T11:22:17;23.20;48.20
11491;DHT22;5802;52.832;4.758;2022-11-24T11:24:46;23.20;48.10
11491;DHT22;5802;52.832;4.758;2022-11-24T11:27:17;23.20;48.10
11491;DHT22;5802;52.832;4.758;2022-11-24T11:29:44;23.20;48.30
11491;DHT22;5802;52.832;4.758;2022-11-24T11:32:17;23.20;48.30
11491;DHT22;5802;52.832;4.758;2022-11-24T11:34:44;23.20;48.20
11491;DHT22;5802;52.832;4.758;2022-11-24T11:37:13;23.20;48.10
11491;DHT22;5802;52.832;4.758;2022-11-24T11:39:42;23.30;48.10
11491;DHT22;5802;52.832;4.758;2022-11-24T11:42:16;23.30;48.10
11491;DHT22;5802;52.832;4.758;2022-11-24T11:44:47;23.30;48.10
11491;DHT22;5802;52.832;4.758;2022-11-24T11:47:20;23.30;48.00
11491;DHT22;5802;52.832;4.758;2022-11-24T11:49:50;23.30;48.00
11491;DHT22;5802;52.832;4.758;2022-11-24T11:52:35;23.30;48.00
11491;DHT22;5802;52.832;4.758;2022-11-24T11:55:27;23.30;48.00
11491;DHT22;5802;52.832;4.758;2022-11-24T11:58:05;23.30;48.10
11491;DHT22;5802;52.832;4.758;2022-11-24T12:00:35;23.30;48.20
11491;DHT22;5802;52.832;4.758;2022-11-24T12:03:33;23.30;48.10
11491;DHT22;5802;52.832;4.758;2022-11-24T12:06:12;23.30;48.10
11491;DHT22;5802;52.832;4.758;2022-11-24T12:08:49;23.30;48.30
11491;DHT22;5802;52.832;4.758;2022-11-24T12:11:22;23.30;48.10
11491;DHT22;5802;52.832;4.758;2022-11-24T12:14:11;23.40;48.20
11491;DHT22;5802;52.832;4.758;2022-11-24T12:16:53;23.40;48.10
11491;DHT22;5802;52.832;4.758;2022-11-24T12:19:38;23.40;48.10
11491;DHT22;5802;52.832;4.758;2022-11-24T12:22:15;23.40;48.10
11491;DHT22;5802;52.832;4.758;2022-11-24T12:24:52;23.40;48.20
11491;DHT22;5802;52.832;4.758;2022-11-24T12:27:29;23.40;48.20
11491;DHT22;5802;52.832;4.758;2022-11-24T12:30:07;23.40;48.40
11491;DHT22;5802;52.832;4.758;2022-11-24T12:32:55;23.40;48.20
11491;DHT22;5802;52.832;4.758;2022-11-24T12:35:32;23.40;48.20
11491;DHT22;5802;52.832;4.758;2022-11-24T12:38:10;23.40;48.10
11491;DHT22;5802;52.832;4.758;2022-11-24T12:40:53;23.40;48.10
11491;DHT22;5802;52.832;4.758;2022-11-24T12:43:26;23.50;48.10
11491;DHT22;5802;52.832;4.758;2022-11-24T12:46:03;23.40;48.10
11491;DHT22;5802;52.832;4.758;2022-11-24T12:48:46;23.40;48.30
11491;DHT22;5802;52.832;4.758;2022-11-24T12:51:17;23.40;48.20
11491;DHT22;5802;52.832;4.758;2022-11-24T12:53:45;23.40;48.10
11491;DHT22;5802;52.832;4.758;2022-11-24T12:56:17;23.50;48.20
11491;DHT22;5802;52.832;4.758;2022-11-24T12:58:49;23.50;48.20
11491;DHT22;5802;52.832;4.758;2022-11-24T13:01:26;23.50;48.10
11491;DHT22;5802;52.832;4.758;2022-11-24T13:04:02;23.50;48.10
11491;DHT22;5802;52.832;4.758;2022-11-24T13:06:42;23.50;48.10
11491;DHT22;5802;52.832;4.758;2022-11-24T13:09:12;23.50;48.20
11491;DHT22;5802;52.832;4.758;2022-11-24T13:11:43;23.40;48.20
11491;DHT22;5802;52.832;4.758;2022-11-24T13:14:20;23.40;48.20
11491;DHT22;5802;52.832;4.758;2022-11-24T13:16:53;23.40;48.30
11491;DHT22;5802;52.832;4.758;2022-11-24T13:19:21;23.40;48.30
11491;DHT22;5802;52.832;4.758;2022-11-24T13:22:08;23.50;48.40
11491;DHT22;5802;52.832;4.758;2022-11-24T13:24:37;23.50;48.60
11491;DHT22;5802;52.832;4.758;2022-11-24T13:27:30;23.40;48.40
11491;DHT22;5802;52.832;4.758;2022-11-24T13:36:28;23.50;48.30
11491;DHT22;5802;52.832;4.758;2022-11-24T13:38:56;23.40;48.40
11491;DHT22;5802;52.832;4.758;2022-11-24T13:44:54;23.40;48.00
11491;DHT22;5802;52.832;4.758;2022-11-24T13:47:48;23.50;47.90
11491;DHT22;5802;52.832;4.758;2022-11-24T13:53:33;23.50;47.70
11491;DHT22;5802;52.832;4.758;2022-11-24T13:56:07;23.40;47.70
11491;DHT22;5802;52.832;4.758;2022-11-24T13:58:36;23.40;47.60
11491;DHT22;5802;52.832;4.758;2022-11-24T14:01:10;23.40;47.50
11491;DHT22;5802;52.832;4.758;2022-11-24T14:03:42;23.40;47.50
11491;DHT22;5802;52.832;4.758;2022-11-24T14:06:16;23.40;47.40
11491;DHT22;5802;52.832;4.758;2022-11-24T14:08:44;23.40;47.40
11491;DHT22;5802;52.832;4.758;2022-11-24T14:11:14;23.40;47.40
11491;DHT22;5802;52.832;4.758;2022-11-24T14:13:41;23.40;47.40
11491;DHT22;5802;52.832;4.758;2022-11-24T14:16:15;23.40;47.40
11491;DHT22;5802;52.832;4.758;2022-11-24T14:18:43;23.40;47.30
11491;DHT22;5802;52.832;4.758;2022-11-24T14:21:26;23.40;47.30
11491;DHT22;5802;52.832;4.758;2022-11-24T14:23:56;23.40;47.40
11491;DHT22;5802;52.832;4.758;2022-11-24T14:26:28;23.30;47.30
11491;DHT22;5802;52.832;4.758;2022-11-24T14:29:05;23.30;47.30
11491;DHT22;5802;52.832;4.758;2022-11-24T14:31:32;23.30;47.30
11491;DHT22;5802;52.832;4.758;2022-11-24T14:34:14;23.30;47.30
11491;DHT22;5802;52.832;4.758;2022-11-24T14:36:43;23.30;47.30
11491;DHT22;5802;52.832;4.758;2022-11-24T14:39:14;23.30;47.30
11491;DHT22;5802;52.832;4.758;2022-11-24T14:41:43;23.30;47.30
11491;DHT22;5802;52.832;4.758;2022-11-24T14:44:18;23.20;47.30
11491;DHT22;5802;52.832;4.758;2022-11-24T14:46:45;23.20;47.30
11491;DHT22;5802;52.832;4.758;2022-11-24T14:49:17;23.20;47.30
11491;DHT22;5802;52.832;4.758;2022-11-24T14:51:51;23.20;47.30
11491;DHT22;5802;52.832;4.758;2022-11-24T14:54:20;23.20;47.30
11491;DHT22;5802;52.832;4.758;2022-11-24T14:57:01;23.20;47.30
11491;DHT22;5802;52.832;4.758;2022-11-24T14:59:30;23.20;46.70
11491;DHT22;5802;52.832;4.758;2022-11-24T15:01:59;23.10;47.30
11491;DHT22;5802;52.832;4.758;2022-11-24T15:04:26;23.20;47.30
11491;DHT22;5802;52.832;4.758;2022-11-24T15:07:04;23.10;47.40
11491;DHT22;5802;52.832;4.758;2022-11-24T15:09:34;23.10;47.40
11491;DHT22;5802;52.832;4.758;2022-11-24T15:12:06;23.10;47.40
11491;DHT22;5802;52.832;4.758;2022-11-24T15:14:41;23.10;47.40
11491;DHT22;5802;52.832;4.758;2022-11-24T15:17:15;23.10;47.40
11491;DHT22;5802;52.832;4.758;2022-11-24T15:19:45;23.00;47.40
11491;DHT22;5802;52.832;4.758;2022-11-24T15:22:35;23.00;47.40
11491;DHT22;5802;52.832;4.758;2022-11-24T15:25:02;23.00;47.40
11491;DHT22;5802;52.832;4.758;2022-11-24T15:27:49;23.00;47.20
11491;DHT22;5802;52.832;4.758;2022-11-24T15:30:16;23.00;47.20
11491;DHT22;5802;52.832;4.758;2022-11-24T15:32:48;23.00;47.30
11491;DHT22;5802;52.832;4.758;2022-11-24T15:35:15;23.00;47.40
11491;DHT22;5802;52.832;4.758;2022-11-24T15:37:43;22.90;47.40
11491;DHT22;5802;52.832;4.758;2022-11-24T15:40:11;22.90;47.50
11491;DHT22;5802;52.832;4.758;2022-11-24T15:42:38;22.90;47.50
11491;DHT22;5802;52.832;4.758;2022-11-24T15:45:05;22.90;47.40
11491;DHT22;5802;52.832;4.758;2022-11-24T15:47:32;22.90;47.50
11491;DHT22;5802;52.832;4.758;2022-11-24T15:49:59;22.90;47.60
11491;DHT22;5802;52.832;4.758;2022-11-24T15:52:25;22.90;47.60
11491;DHT22;5802;52.832;4.758;2022-11-24T15:54:55;22.80;47.60
11491;DHT22;5802;52.832;4.758;2022-11-24T15:57:22;22.80;47.60
11491;DHT22;5802;52.832;4.758;2022-11-24T15:59:51;22.80;47.70
11491;DHT22;5802;52.832;4.758;2022-11-24T16:02:17;22.80;47.70
11491;DHT22;5802;52.832;4.758;2022-11-24T16:04:46;22.80;47.70
11491;DHT22;5802;52.832;4.758;2022-11-24T16:07:13;22.80;47.70
11491;DHT22;5802;52.832;4.758;2022-11-24T16:09:40;22.80;47.70
11491;DHT22;5802;52.832;4.758;2022-11-24T16:12:08;22.80;47.70
11491;DHT22;5802;52.832;4.758;2022-11-24T16:14:35;22.80;47.80
11491;DHT22;5802;52.832;4.758;2022-11-24T16:17:01;22.80;47.80
11491;DHT22;5802;52.832;4.758;2022-11-24T16:19:28;22.80;47.80
11491;DHT22;5802;52.832;4.758;2022-11-24T16:21:55;22.70;47.80
11491;DHT22;5802;52.832;4.758;2022-11-24T16:24:22;22.70;47.80
11491;DHT22;5802;52.832;4.758;2022-11-24T16:26:48;22.70;47.90
11491;DHT22;5802;52.832;4.758;2022-11-24T16:29:16;22.70;47.90
11491;DHT22;5802;52.832;4.758;2022-11-24T16:31:45;22.70;48.00
11491;DHT22;5802;52.832;4.758;2022-11-24T16:34:12;22.70;47.90
11491;DHT22;5802;52.832;4.758;2022-11-24T16:36:38;22.70;48.00
11491;DHT22;5802;52.832;4.758;2022-11-24T16:39:05;22.70;48.00
11491;DHT22;5802;52.832;4.758;2022-11-24T16:41:32;22.70;48.00
11491;DHT22;5802;52.832;4.758;2022-11-24T16:43:58;22.70;48.00
11491;DHT22;5802;52.832;4.758;2022-11-24T16:46:26;22.60;48.00
11491;DHT22;5802;52.832;4.758;2022-11-24T16:48:54;22.60;48.00
11491;DHT22;5802;52.832;4.758;2022-11-24T16:51:24;22.60;48.10
11491;DHT22;5802;52.832;4.758;2022-11-24T16:53:56;22.60;48.10
11491;DHT22;5802;52.832;4.758;2022-11-24T16:56:23;22.60;48.10
11491;DHT22;5802;52.832;4.758;2022-11-24T16:58:49;22.60;48.10
11491;DHT22;5802;52.832;4.758;2022-11-24T17:01:16;22.60;48.10
11491;DHT22;5802;52.832;4.758;2022-11-24T17:03:44;22.60;48.10
11491;DHT22;5802;52.832;4.758;2022-11-24T17:06:13;22.60;48.10
11491;DHT22;5802;52.832;4.758;2022-11-24T17:08:43;22.60;48.10
11491;DHT22;5802;52.832;4.758;2022-11-24T17:11:12;22.60;48.20
11491;DHT22;5802;52.832;4.758;2022-11-24T17:13:39;22.50;48.10
11491;DHT22;5802;52.832;4.758;2022-11-24T17:16:08;22.50;48.10
11491;DHT22;5802;52.832;4.758;2022-11-24T17:18:35;22.50;48.90
11491;DHT22;5802;52.832;4.758;2022-11-24T17:21:05;22.50;48.40
11491;DHT22;5802;52.832;4.758;2022-11-24T17:23:32;22.50;48.60
11491;DHT22;5802;52.832;4.758;2022-11-24T17:26:04;22.50;48.60
11491;DHT22;5802;52.832;4.758;2022-11-24T17:28:32;22.50;48.60
11491;DHT22;5802;52.832;4.758;2022-11-24T17:31:04;22.50;48.70
11491;DHT22;5802;52.832;4.758;2022-11-24T17:33:31;22.40;48.70
11491;DHT22;5802;52.832;4.758;2022-11-24T17:36:00;22.40;48.90